Elm Springs, AR (72728)

10:53 AM CDT on July 24, 2016 (GMT -0500)
Elm Springs Rd. | | Change Station
Active Advisory: Heat Advisory

Elev 1257 ft 36.21 °N, 94.23 °W | Updated 2 seconds ago

Clear
Clear
88.9 °F
Feels Like 103 °F
N
2.9
Wind Variable Wind from WNW
Gusts 4.0 mph

Today
High -- | Low -- °F
--% Chance of Precip.
Yesterday
High -- | Low -- °F
Precip. -- in
Pressure 30.06 in
Visibility 10.0 miles
Clouds Clear
Heat Index 103 °F
Dew Point 78 °F
Humidity 70%
Rainfall 0.00 in
Snow Depth Not available.
6:18 AM 8:28 PM
Waning Gibbous, 75% visible
METAR KASG 241548Z 25008KT 10SM SKC 31/23 A3006
Pressure 30.06 in
Visibility 10.0 miles
Clouds Clear
Heat Index 103 °F
Dew Point 78 °F
Humidity 70%
Rainfall 0.00 in
Snow Depth Not available.
6:18 AM 8:28 PM
Waning Gibbous, 75% visible
METAR KASG 241548Z 25008KT 10SM SKC 31/23 A3006

10-Day Weather Forecast

Almanac

Astronomy

Jul. 24, 2016 Rise Set
Actual Time
Civil Twilight
Nautical Twilight
Astronomical Twilight
Moon
Length of Visible Light
Length of Day
Tomorrow will be .
, % of the Moon is Illuminated

Today's Extremes

State Highs State Lows

Community

WunderPhotos

Upload Photos

1,927,092 photos uploaded!

WunderBlog® & News

Nearby

Air Quality

  Air Quality AQ Index Pollutant
Not available.

Snow Depth

Station Depth Elevation

Earthquake Activity

City Distance Mag. Time & Date
Minimum magnitude displayed is 2.5.

Coastal Water Temperatures

Place Temperature

Stations

Nearby Weather Stations

Station Location Temp. Windchill Dew Point Humidity Wind Precip. Elev Updated Type
                   

Watches & Warnings

Heat Advisory
Issued: 10:48 AM CDT Jul. 24, 2016 – National Weather Service

... Heat advisory remains in effect until 9 PM CDT this evening...

* affected area... in Arkansas... Benton... Carroll... Washington...
Madison... Crawford... Franklin... and Sebastian counties. In
Oklahoma... Pushmataha... Choctaw... Osage... Washington...
Nowata... Craig... Ottawa... Pawnee... Tulsa... Rogers... Mayes...
Delaware... creek... Okfuskee... Okmulgee... Wagoner... Cherokee...
Adair... Muskogee... McIntosh... Sequoyah... Pittsburg...
Haskell... Latimer... and Le Flore counties.

* Temperature... afternoon heat indices from 102 to 109 are
expected.

* Impacts... the combination of hot temperatures and high humidity
will combine to create a dangerous situation in which heat
illnesses are possible.

Precautionary/preparedness actions...

Take extra precautions if you work or spend time outside. When
possible... reschedule strenuous activities to early morning or
evening. Drink plenty of water to stay hydrated.

Never leave anyone in a closed... parked vehicle. Temperatures
inside can reach over 150 degrees quickly... resulting in heat
stroke and death.

Pets can also succumb to the effects of excessive heat. Ensure
pets have adequate drinking water and a shady place to rest.